Time;durP1;ratioP1;P1;durP2;ratioP2;P2;SDS_P1;SDS_P2;PMS_P1;PMS_P2;Temp;Humidity;BMP_temperature;BMP_pressure;BME280_temperature;BME280_humidity;BME280_pressure;Samples;Min_cycle;Max_cycle;Signal;HPM_P1;HPM_P2
2024/02/07 00:00:59;;;;;;;7.03;6.40;;;12.10;99.90;;;;;;4991457;28;20426;-65
2024/02/07 00:03:26;;;;;;;6.83;5.77;;;12.10;99.90;;;;;;4992385;28;20431;-65
2024/02/07 00:05:51;;;;;;;6.27;5.70;;;12.00;99.90;;;;;;4992486;28;20519;-65
2024/02/07 00:08:17;;;;;;;7.53;6.37;;;12.00;99.90;;;;;;4992283;28;20550;-65
2024/02/07 00:10:43;;;;;;;8.93;5.30;;;12.00;99.90;;;;;;4992344;28;20195;-61
2024/02/07 00:13:08;;;;;;;8.50;5.80;;;12.00;99.90;;;;;;4992170;28;20235;-65
2024/02/07 00:15:34;;;;;;;10.13;5.63;;;11.90;99.90;;;;;;4993515;28;20187;-66
2024/02/07 00:18:00;;;;;;;6.00;5.43;;;11.90;99.90;;;;;;4970937;28;20280;-66
2024/02/07 00:20:26;;;;;;;6.97;6.03;;;11.80;99.90;;;;;;4972968;28;20235;-66
2024/02/07 00:22:51;;;;;;;6.40;5.80;;;11.90;99.90;;;;;;4972085;28;20207;-66
2024/02/07 00:25:17;;;;;;;6.67;6.17;;;11.90;99.90;;;;;;4973583;28;20212;-66
2024/02/07 00:27:43;;;;;;;9.77;6.87;;;11.90;99.90;;;;;;4972565;28;20218;-66
2024/02/07 00:30:10;;;;;;;9.97;6.63;;;11.90;99.90;;;;;;4972417;28;20238;-65
2024/02/07 00:32:35;;;;;;;7.00;6.40;;;11.80;99.90;;;;;;4973595;28;20535;-65
2024/02/07 00:35:01;;;;;;;7.87;6.30;;;11.90;99.90;;;;;;4972163;28;20428;-65
2024/02/07 00:37:27;;;;;;;7.83;6.40;;;11.80;99.90;;;;;;4972733;28;20185;-66
2024/02/07 00:39:53;;;;;;;6.87;6.27;;;11.80;99.90;;;;;;4972896;28;20407;-64
2024/02/07 00:42:19;;;;;;;6.10;5.23;;;11.80;99.90;;;;;;4972398;28;20198;-66
2024/02/07 00:44:44;;;;;;;6.70;5.87;;;11.80;99.90;;;;;;4972823;28;20184;-62
2024/02/07 00:47:11;;;;;;;7.17;5.30;;;11.80;99.90;;;;;;4972570;28;20168;-66
2024/02/07 00:49:37;;;;;;;6.67;6.10;;;11.80;99.90;;;;;;4972623;28;20189;-66
2024/02/07 00:52:04;;;;;;;6.00;5.50;;;11.90;99.90;;;;;;4971872;28;20484;-65
2024/02/07 00:54:29;;;;;;;6.23;5.63;;;11.80;99.90;;;;;;4973419;28;20407;-62
2024/02/07 00:56:55;;;;;;;7.00;5.77;;;11.90;99.90;;;;;;4972406;28;20995;-65
2024/02/07 00:59:21;;;;;;;6.40;5.77;;;11.90;99.90;;;;;;4972675;28;20182;-66
2024/02/07 01:01:47;;;;;;;6.93;6.23;;;12.00;99.90;;;;;;4962946;28;20869;-61
2024/02/07 01:04:13;;;;;;;7.23;6.07;;;11.90;99.90;;;;;;4953995;28;20409;-65
2024/02/07 01:06:39;;;;;;;6.30;5.70;;;11.90;99.90;;;;;;4973452;28;20629;-66
2024/02/07 01:09:05;;;;;;;9.17;5.27;;;12.00;99.90;;;;;;4971719;28;20215;-66
2024/02/07 01:11:31;;;;;;;6.30;5.70;;;12.00;99.90;;;;;;4972534;28;20179;-66
2024/02/07 01:13:57;;;;;;;7.03;6.40;;;12.00;99.90;;;;;;4970713;28;20463;-66
2024/02/07 01:16:23;;;;;;;9.03;6.27;;;12.00;99.90;;;;;;4974064;28;20437;-63
2024/02/07 01:18:52;;;;;;;6.57;6.03;;;12.00;99.90;;;;;;4994644;28;20477;-60
2024/02/07 01:21:17;;;;;;;6.67;6.07;;;11.90;99.90;;;;;;4995655;28;20226;-65
2024/02/07 01:23:45;;;;;;;6.23;5.83;;;12.00;99.90;;;;;;4985786;28;20517;-65
2024/02/07 01:26:14;;;;;;;6.77;6.17;;;11.90;99.90;;;;;;4994734;28;20209;-66
2024/02/07 01:28:40;;;;;;;6.47;5.93;;;12.00;99.90;;;;;;4995597;28;20471;-66
2024/02/07 01:31:07;;;;;;;7.03;6.00;;;12.00;99.90;;;;;;4995724;28;20402;-66
2024/02/07 01:33:35;;;;;;;7.30;6.20;;;12.00;99.90;;;;;;4995584;28;20438;-66
2024/02/07 01:36:01;;;;;;;6.83;6.23;;;12.10;99.90;;;;;;4977350;28;20894;-65
2024/02/07 01:38:27;;;;;;;5.50;5.07;;;12.10;99.90;;;;;;4995640;28;20430;-66
2024/02/07 01:40:57;;;;;;;8.53;6.10;;;12.10;99.90;;;;;;4995527;28;20412;-64
2024/02/07 01:43:33;;;;;;;6.67;6.17;;;12.10;99.90;;;;;;4966720;28;20429;-66
2024/02/07 01:46:00;;;;;;;5.97;5.50;;;12.10;99.90;;;;;;4975979;28;20401;-62
2024/02/07 01:48:27;;;;;;;6.33;5.83;;;12.00;99.90;;;;;;4976804;28;20471;-65
2024/02/07 01:50:54;;;;;;;6.40;6.00;;;12.00;99.90;;;;;;4984201;28;20433;-60
2024/02/07 01:53:20;;;;;;;8.47;6.10;;;12.00;99.90;;;;;;4995549;28;20424;-65
2024/02/07 01:55:51;;;;;;;5.97;5.47;;;12.00;99.90;;;;;;4995228;28;20427;-67
2024/02/07 01:58:18;;;;;;;6.00;5.60;;;12.00;99.90;;;;;;4994868;28;20481;-65
2024/02/07 02:00:45;;;;;;;5.83;5.43;;;11.90;99.90;;;;;;4991674;28;20432;-66
2024/02/07 02:03:13;;;;;;;6.20;5.27;;;12.00;99.90;;;;;;4993582;28;20576;-66
2024/02/07 02:05:41;;;;;;;5.40;5.10;;;12.00;99.90;;;;;;4995116;28;20787;-66
2024/02/07 02:08:08;;;;;;;5.83;5.53;;;12.00;99.90;;;;;;4993606;28;20467;-66
2024/02/07 02:10:35;;;;;;;6.67;5.97;;;12.00;99.90;;;;;;4995174;28;20515;-66
2024/02/07 02:13:01;;;;;;;6.37;5.87;;;12.00;99.90;;;;;;4993889;28;20446;-66
2024/02/07 02:15:28;;;;;;;7.13;6.00;;;12.10;99.90;;;;;;4994851;28;21047;-66
2024/02/07 02:17:54;;;;;;;5.70;5.33;;;12.10;99.90;;;;;;4994513;28;20478;-60
2024/02/07 02:20:20;;;;;;;6.43;6.03;;;12.10;99.90;;;;;;4994894;28;20486;-66
2024/02/07 02:23:06;;;;;;;5.50;5.10;;;12.10;99.90;;;;;;4994420;28;20515;-65
2024/02/07 02:25:32;;;;;;;5.87;5.40;;;12.10;99.90;;;;;;4994639;28;20418;-66
2024/02/07 02:28:31;;;;;;;6.20;5.80;;;12.10;99.90;;;;;;4993600;28;20589;-66
2024/02/07 02:30:59;;;;;;;5.13;4.73;;;12.10;99.90;;;;;;4979776;28;20263;-66
2024/02/07 02:33:29;;;;;;;5.43;5.03;;;12.00;99.90;;;;;;4995163;28;20427;-66
2024/02/07 02:35:56;;;;;;;5.87;5.40;;;12.10;99.90;;;;;;4993529;28;20439;-60
2024/02/07 02:38:26;;;;;;;6.20;5.63;;;12.10;99.90;;;;;;4994489;28;20455;-65
2024/02/07 02:40:52;;;;;;;5.27;4.87;;;12.10;99.90;;;;;;4994037;28;20419;-61
2024/02/07 02:43:22;;;;;;;5.37;5.00;;;12.10;99.90;;;;;;4994478;28;20429;-66
2024/02/07 02:45:51;;;;;;;5.87;5.20;;;12.10;99.90;;;;;;4994139;28;20778;-66
2024/02/07 02:48:18;;;;;;;5.60;5.30;;;12.10;99.90;;;;;;4993221;28;20544;-65
2024/02/07 02:50:45;;;;;;;6.03;5.70;;;12.10;99.90;;;;;;4994751;28;20437;-66
2024/02/07 02:53:12;;;;;;;5.93;4.80;;;12.10;99.90;;;;;;4992986;28;20429;-66
2024/02/07 02:55:39;;;;;;;5.60;5.30;;;12.10;99.90;;;;;;4993203;28;20916;-64
2024/02/07 02:58:05;;;;;;;6.83;5.70;;;12.10;99.90;;;;;;4994364;28;20423;-66
2024/02/07 03:00:31;;;;;;;6.53;5.90;;;12.10;99.90;;;;;;4993941;28;20846;-66
2024/02/07 03:02:57;;;;;;;6.40;5.40;;;12.10;99.90;;;;;;4976164;28;20504;-61
2024/02/07 03:05:58;;;;;;;5.23;5.03;;;12.00;99.90;;;;;;4994110;28;20181;-66
2024/02/07 03:08:29;;;;;;;5.40;5.10;;;12.00;99.90;;;;;;4992189;28;20480;-66
2024/02/07 03:10:55;;;;;;;6.17;5.60;;;12.00;99.90;;;;;;4993634;28;20441;-60
2024/02/07 03:13:22;;;;;;;6.40;5.80;;;12.10;99.90;;;;;;4993271;28;20532;-66
2024/02/07 03:15:48;;;;;;;6.20;5.70;;;12.10;99.90;;;;;;4994346;28;20757;-67
2024/02/07 03:18:13;;;;;;;6.03;5.53;;;12.10;99.90;;;;;;4992238;28;20533;-66
2024/02/07 03:20:39;;;;;;;6.60;6.03;;;12.10;99.90;;;;;;4993729;28;20656;-67
2024/02/07 03:23:05;;;;;;;6.03;5.63;;;12.10;99.90;;;;;;4993395;28;20175;-66
2024/02/07 03:25:33;;;;;;;6.40;5.90;;;12.00;99.90;;;;;;4993424;28;20594;-66
2024/02/07 03:28:01;;;;;;;5.93;5.50;;;12.00;99.90;;;;;;4992580;28;20212;-61
2024/02/07 03:30:27;;;;;;;5.57;5.20;;;11.90;99.90;;;;;;4990581;28;20432;-66
2024/02/07 03:32:53;;;;;;;3.97;3.77;;;12.00;99.90;;;;;;4993013;28;20424;-66
2024/02/07 03:35:19;;;;;;;3.37;3.27;;;11.90;99.90;;;;;;4975816;28;20195;-66
2024/02/07 03:37:44;;;;;;;3.30;3.20;;;11.90;99.90;;;;;;4972259;28;20870;-66
2024/02/07 03:40:14;;;;;;;3.33;3.23;;;11.80;99.90;;;;;;4980555;28;20259;-66
2024/02/07 03:42:44;;;;;;;3.10;2.90;;;11.80;99.90;;;;;;4993315;28;20188;-64
2024/02/07 03:45:15;;;;;;;3.57;3.37;;;11.40;99.90;;;;;;4981397;28;20429;-66
2024/02/07 03:47:41;;;;;;;2.83;2.63;;;11.10;99.90;;;;;;4992966;28;20478;-66
2024/02/07 03:50:15;;;;;;;3.10;2.90;;;10.80;99.90;;;;;;4992560;28;20758;-66
2024/02/07 03:52:45;;;;;;;2.67;2.57;;;10.70;99.90;;;;;;4993376;28;20910;-66
2024/02/07 03:55:12;;;;;;;2.40;2.30;;;10.60;99.90;;;;;;4991865;28;20761;-66
2024/02/07 03:57:42;;;;;;;4.37;2.60;;;10.50;99.90;;;;;;4993009;28;20441;-66
2024/02/07 04:00:13;;;;;;;2.40;2.30;;;10.50;99.90;;;;;;4992390;28;20785;-66
2024/02/07 04:02:40;;;;;;;2.53;2.43;;;10.50;99.90;;;;;;4992754;28;20439;-65
2024/02/07 04:05:09;;;;;;;3.40;2.90;;;10.40;99.90;;;;;;4991954;28;20511;-65
2024/02/07 04:07:35;;;;;;;3.10;2.90;;;10.30;99.90;;;;;;4993236;28;20458;-66
2024/02/07 04:10:05;;;;;;;2.97;2.77;;;10.30;99.90;;;;;;4991509;28;20438;-61
2024/02/07 05:17:40;;;;;;;2.70;2.50;;;9.50;99.90;;;;;;4991854;28;20475;-66
2024/02/07 05:20:06;;;;;;;2.60;2.40;;;9.50;99.90;;;;;;4990311;28;20184;-65
2024/02/07 05:22:32;;;;;;;2.00;2.00;;;9.60;99.90;;;;;;4991530;28;20261;-66
2024/02/07 05:25:00;;;;;;;2.13;2.00;;;9.50;99.90;;;;;;4973755;28;20474;-65
2024/02/07 05:27:30;;;;;;;3.17;1.73;;;9.60;99.90;;;;;;4973851;28;20295;-66
2024/02/07 05:29:56;;;;;;;1.70;1.60;;;9.60;99.90;;;;;;4990749;28;20432;-66
2024/02/07 05:32:21;;;;;;;1.93;1.60;;;9.60;99.90;;;;;;4990618;28;20427;-65
2024/02/07 05:34:47;;;;;;;1.67;1.57;;;9.70;99.90;;;;;;4992281;28;20658;-66
2024/02/07 05:37:13;;;;;;;1.70;1.60;;;9.70;99.90;;;;;;4991066;28;20312;-65
2024/02/07 05:39:39;;;;;;;2.87;2.77;;;9.70;99.90;;;;;;4991438;28;20540;-66
2024/02/07 05:42:05;;;;;;;3.93;2.30;;;9.50;99.90;;;;;;4990808;28;20178;-61
2024/02/07 05:44:31;;;;;;;2.73;2.53;;;9.50;99.90;;;;;;4992094;28;20934;-67
2024/02/07 05:46:56;;;;;;;3.23;3.07;;;9.50;99.90;;;;;;4974029;28;20433;-66
2024/02/07 05:49:22;;;;;;;2.40;2.30;;;9.40;99.90;;;;;;4990720;28;20839;-66
2024/02/07 05:51:57;;;;;;;2.60;2.50;;;9.40;99.90;;;;;;4992414;28;20181;-67
2024/02/07 05:54:27;;;;;;;2.50;2.20;;;9.30;99.90;;;;;;4991120;28;20452;-67
2024/02/07 05:56:53;;;;;;;2.63;2.43;;;9.20;99.90;;;;;;4991535;28;20466;-67
2024/02/07 05:59:19;;;;;;;3.20;3.00;;;9.10;99.90;;;;;;4991270;28;20424;-66
2024/02/07 06:01:48;;;;;;;2.10;2.00;;;9.00;99.90;;;;;;4992260;28;20426;-66
2024/02/07 06:04:14;;;;;;;2.63;2.43;;;9.00;99.90;;;;;;4993805;28;20521;-64
2024/02/07 06:06:42;;;;;;;2.57;2.37;;;9.00;99.90;;;;;;4969158;28;20432;-67
2024/02/07 06:09:08;;;;;;;2.60;2.50;;;9.00;99.90;;;;;;4977314;28;20558;-66
2024/02/07 06:11:41;;;;;;;3.50;3.30;;;9.00;99.90;;;;;;4994525;28;20452;-67
2024/02/07 06:14:16;;;;;;;3.03;2.83;;;9.00;99.90;;;;;;4995012;28;20432;-61
2024/02/07 06:16:42;;;;;;;3.87;3.57;;;9.00;99.90;;;;;;4976559;28;21044;-66
2024/02/07 06:19:08;;;;;;;2.90;2.70;;;9.00;99.90;;;;;;4993474;28;20522;-61
2024/02/07 06:21:33;;;;;;;3.40;2.93;;;9.00;99.90;;;;;;4995443;28;20483;-67
2024/02/07 06:23:59;;;;;;;2.40;2.17;;;9.00;99.90;;;;;;4994657;28;20429;-67
2024/02/07 06:26:25;;;;;;;3.90;2.53;;;9.00;99.90;;;;;;4993872;28;20247;-66
2024/02/07 06:28:51;;;;;;;3.80;2.60;;;8.90;99.90;;;;;;4971001;28;20232;-67
2024/02/07 06:31:19;;;;;;;6.30;3.10;;;8.80;99.90;;;;;;4974312;28;20224;-66
2024/02/07 06:33:45;;;;;;;5.67;3.70;;;8.80;99.90;;;;;;4992682;28;20431;-61
2024/02/07 06:36:11;;;;;;;4.53;2.50;;;8.60;99.90;;;;;;4993724;28;20425;-62
2024/02/07 06:38:36;;;;;;;4.73;4.27;;;8.40;99.90;;;;;;4993670;28;20434;-63
2024/02/07 06:41:03;;;;;;;4.27;2.53;;;8.40;99.90;;;;;;4993620;28;20623;-65
2024/02/07 06:43:29;;;;;;;3.40;3.17;;;8.20;99.90;;;;;;4993174;28;20267;-64
2024/02/07 06:45:55;;;;;;;2.57;2.47;;;8.10;99.90;;;;;;4993687;28;20975;-64
2024/02/07 06:48:21;;;;;;;3.03;2.80;;;8.20;99.90;;;;;;4991731;28;20212;-66
2024/02/07 06:50:47;;;;;;;2.40;2.30;;;8.00;99.90;;;;;;4976168;28;20431;-61
2024/02/07 06:53:14;;;;;;;3.20;2.90;;;8.00;99.90;;;;;;4976054;28;20521;-64
2024/02/07 06:55:40;;;;;;;3.40;2.37;;;8.00;99.90;;;;;;4993751;28;20518;-63
2024/02/07 06:58:05;;;;;;;2.83;2.60;;;8.00;99.90;;;;;;4992156;28;20522;-62
2024/02/07 07:00:31;;;;;;;3.40;3.10;;;8.00;99.90;;;;;;4991954;28;20187;-63
2024/02/07 07:02:57;;;;;;;5.77;5.27;;;8.00;99.90;;;;;;4993273;28;20241;-63
2024/02/07 07:05:23;;;;;;;9.50;4.50;;;7.90;99.90;;;;;;4992118;28;20266;-63
2024/02/07 07:07:48;;;;;;;5.93;3.93;;;7.90;99.90;;;;;;4969630;28;20546;-63
2024/02/07 07:10:14;;;;;;;4.03;2.77;;;7.80;99.90;;;;;;4988169;28;20199;-63
2024/02/07 07:12:40;;;;;;;2.40;2.30;;;7.70;99.90;;;;;;4993097;28;20237;-64
2024/02/07 07:15:06;;;;;;;4.83;4.53;;;7.70;99.90;;;;;;4992826;28;20516;-63
2024/02/07 07:17:32;;;;;;;4.03;3.80;;;7.80;99.90;;;;;;4992770;28;21020;-63
2024/02/07 07:19:58;;;;;;;4.17;3.50;;;7.70;99.90;;;;;;4992684;28;20441;-62
2024/02/07 07:22:24;;;;;;;4.30;4.10;;;7.70;99.90;;;;;;4992011;28;20191;-63
2024/02/07 07:24:50;;;;;;;2.50;2.40;;;7.70;99.90;;;;;;4992054;28;20210;-63
2024/02/07 07:27:16;;;;;;;4.47;3.67;;;7.80;99.90;;;;;;4992661;28;20439;-62
2024/02/07 07:29:42;;;;;;;2.60;2.50;;;7.90;99.90;;;;;;4992874;28;20450;-64
2024/02/07 07:32:09;;;;;;;4.77;4.67;;;7.90;99.90;;;;;;4994070;28;20427;-63
2024/02/07 07:34:35;;;;;;;2.13;2.03;;;8.00;99.90;;;;;;4991354;28;20433;-63
2024/02/07 07:37:01;;;;;;;5.33;5.13;;;8.00;99.90;;;;;;4992493;28;20427;-62
2024/02/07 07:39:27;;;;;;;2.67;2.47;;;8.00;99.90;;;;;;4991813;28;20492;-62
2024/02/07 07:41:53;;;;;;;3.67;2.63;;;8.00;99.90;;;;;;4972345;28;20829;-62
2024/02/07 07:44:19;;;;;;;2.60;2.50;;;8.00;99.90;;;;;;4976925;28;20780;-62
2024/02/07 07:46:45;;;;;;;4.60;4.30;;;8.00;99.90;;;;;;4993363;28;20183;-65
2024/02/07 07:49:11;;;;;;;2.97;2.77;;;7.80;99.90;;;;;;4973962;28;20217;-61
2024/02/07 07:51:37;;;;;;;4.60;4.20;;;7.80;99.90;;;;;;4992377;28;20999;-64
2024/02/07 07:54:03;;;;;;;3.80;3.50;;;7.90;99.90;;;;;;4991160;28;20443;-66
2024/02/07 07:56:31;;;;;;;4.40;4.10;;;7.90;99.90;;;;;;4991042;28;20456;-63
2024/02/07 07:58:59;;;;;;;3.90;3.37;;;8.00;99.90;;;;;;4991636;28;20434;-61
2024/02/07 08:01:27;;;;;;;3.10;2.90;;;8.00;99.90;;;;;;4973039;28;20436;-63
2024/02/07 08:03:54;;;;;;;3.80;3.37;;;8.00;99.90;;;;;;4992233;28;20484;-63
2024/02/07 08:06:20;;;;;;;4.70;4.40;;;8.10;99.90;;;;;;4991905;28;20848;-62
2024/02/07 08:08:46;;;;;;;5.30;4.10;;;8.10;99.90;;;;;;4955518;28;20955;-63
2024/02/07 08:11:12;;;;;;;5.47;3.90;;;8.00;99.90;;;;;;4989436;28;20458;-60
2024/02/07 08:13:38;;;;;;;6.47;5.97;;;8.00;99.90;;;;;;4974723;28;20242;-63
2024/02/07 08:16:04;;;;;;;4.20;3.80;;;8.10;99.90;;;;;;4973177;28;20411;-63
2024/02/07 08:18:30;;;;;;;6.20;5.70;;;8.00;99.90;;;;;;4989719;28;20227;-62
2024/02/07 08:20:56;;;;;;;5.77;5.47;;;7.80;99.90;;;;;;4991853;28;20435;-64
2024/02/07 08:23:22;;;;;;;4.37;3.97;;;7.60;99.90;;;;;;4992451;28;20464;-63
2024/02/07 08:25:55;;;;;;;5.20;4.23;;;7.70;99.90;;;;;;4992307;28;20430;-64
2024/02/07 08:28:21;;;;;;;5.40;4.90;;;7.70;99.90;;;;;;4991620;28;20809;-63
2024/02/07 08:30:47;;;;;;;5.30;5.00;;;7.70;99.90;;;;;;4992489;28;20407;-64
2024/02/07 08:33:12;;;;;;;5.50;5.10;;;7.60;99.90;;;;;;4993170;28;20175;-68
2024/02/07 08:35:38;;;;;;;8.70;8.20;;;7.60;99.90;;;;;;4991580;28;20215;-62
2024/02/07 08:38:04;;;;;;;10.27;9.57;;;8.10;99.90;;;;;;4991459;28;20262;-61
2024/02/07 08:40:30;;;;;;;9.23;8.53;;;8.90;99.90;;;;;;4974845;28;20886;-61
2024/02/07 08:42:56;;;;;;;8.30;7.70;;;9.50;99.90;;;;;;4992522;28;20180;-61
2024/02/07 08:45:22;;;;;;;8.70;8.10;;;10.10;99.90;;;;;;4991418;28;20558;-60
2024/02/07 08:47:48;;;;;;;7.00;6.60;;;10.60;99.90;;;;;;4993001;28;20300;-61
2024/02/07 08:50:14;;;;;;;7.53;7.00;;;11.10;99.90;;;;;;4992011;28;20582;-60
2024/02/07 08:52:41;;;;;;;7.17;6.60;;;11.40;99.90;;;;;;4990435;28;20922;-61
2024/02/07 08:55:08;;;;;;;6.77;6.20;;;11.70;99.90;;;;;;4988302;28;20426;-62
2024/02/07 08:57:38;;;;;;;5.83;5.37;;;12.10;99.90;;;;;;4989195;28;20432;-61
2024/02/07 09:00:05;;;;;;;6.10;5.20;;;12.30;99.90;;;;;;4984195;28;20400;-61
2024/02/07 09:02:31;;;;;;;5.57;5.07;;;12.40;99.90;;;;;;4989019;28;20914;-63
2024/02/07 09:05:03;;;;;;;7.83;7.00;;;12.40;99.90;;;;;;4992767;28;20418;-61
2024/02/07 09:07:29;;;;;;;6.97;6.47;;;12.60;99.90;;;;;;4991420;28;20807;-62
2024/02/07 09:09:55;;;;;;;4.97;4.57;;;12.80;99.90;;;;;;4992291;28;20431;-61
2024/02/07 09:12:20;;;;;;;6.30;5.90;;;13.10;99.90;;;;;;4991160;28;20183;-61
2024/02/07 09:14:46;;;;;;;3.80;3.40;;;13.30;99.90;;;;;;4992923;28;20635;-64
2024/02/07 09:17:12;;;;;;;6.90;6.50;;;13.40;99.90;;;;;;4990542;28;20213;-61
2024/02/07 09:19:38;;;;;;;4.70;4.13;;;13.60;99.90;;;;;;4991929;28;20187;-61
2024/02/07 09:22:04;;;;;;;5.03;4.63;;;13.70;99.90;;;;;;4974405;28;20182;-67
2024/02/07 09:24:29;;;;;;;5.00;4.70;;;13.90;99.90;;;;;;4972725;28;20928;-65
2024/02/07 09:26:57;;;;;;;4.07;3.87;;;13.70;97.20;;;;;;4992191;28;20192;-72
2024/02/07 09:29:23;;;;;;;4.47;4.07;;;13.40;95.90;;;;;;4991017;28;20232;-73
2024/02/07 09:31:49;;;;;;;617.77;473.90;;;13.00;95.70;;;;;;4992816;28;20411;-72
2024/02/07 09:34:14;;;;;;;156.30;104.17;;;12.60;95.80;;;;;;4992504;28;20418;-73
2024/02/07 09:36:40;;;;;;;16.77;12.43;;;12.30;96.90;;;;;;4992734;28;20520;-73
2024/02/07 09:39:06;;;;;;;4.73;4.20;;;12.00;97.50;;;;;;4994484;28;20190;-72
2024/02/07 09:41:33;;;;;;;5.97;5.60;;;11.70;98.40;;;;;;4994648;28;20193;-73
2024/02/07 09:44:03;;;;;;;4.93;4.53;;;11.40;99.40;;;;;;4994467;28;20415;-74
2024/02/07 09:46:41;;;;;;;4.80;4.40;;;11.20;99.90;;;;;;4976732;28;20424;-72
2024/02/07 09:49:13;;;;;;;4.00;3.70;;;11.00;99.90;;;;;;4994887;28;20499;-73
2024/02/07 09:51:42;;;;;;;5.87;5.47;;;10.80;99.90;;;;;;4995676;28;20694;-73
2024/02/07 09:54:11;;;;;;;6.03;5.70;;;10.60;99.90;;;;;;4977837;28;20464;-73
2024/02/07 09:56:38;;;;;;;5.40;4.90;;;10.50;99.90;;;;;;4995360;28;20411;-73
2024/02/07 09:59:11;;;;;;;4.67;4.27;;;10.40;99.90;;;;;;4996578;28;20445;-73
2024/02/07 10:01:38;;;;;;;6.40;4.30;;;10.20;99.90;;;;;;4994971;28;20892;-73
2024/02/07 10:04:06;;;;;;;5.37;4.97;;;10.20;99.90;;;;;;4994901;28;20771;-73
2024/02/07 10:06:32;;;;;;;5.07;4.77;;;10.00;99.90;;;;;;4995162;28;20427;-73
2024/02/07 10:08:58;;;;;;;5.20;4.80;;;9.90;99.90;;;;;;4995762;28;20549;-73
2024/02/07 10:11:26;;;;;;;5.37;4.90;;;9.90;99.90;;;;;;4995021;28;20516;-72
2024/02/07 10:13:51;;;;;;;5.87;5.33;;;9.80;99.90;;;;;;4994455;28;20417;-73
2024/02/07 10:16:17;;;;;;;6.20;5.80;;;9.70;99.90;;;;;;4995587;28;20480;-72
2024/02/07 10:18:44;;;;;;;4.73;4.37;;;9.70;99.90;;;;;;4995049;28;20240;-73
2024/02/07 10:21:11;;;;;;;5.10;4.70;;;9.60;99.90;;;;;;4995517;28;20417;-73
2024/02/07 10:23:37;;;;;;;5.23;4.70;;;9.50;99.90;;;;;;4977481;28;20927;-72
2024/02/07 10:26:02;;;;;;;6.70;5.10;;;9.50;99.90;;;;;;4994726;28;20488;-72
2024/02/07 10:28:29;;;;;;;3.80;3.60;;;9.40;99.90;;;;;;4976326;28;20209;-72
2024/02/07 10:31:03;;;;;;;5.47;3.93;;;9.40;99.90;;;;;;4995430;28;20540;-73
2024/02/07 10:33:40;;;;;;;3.63;3.40;;;9.40;99.90;;;;;;4994649;28;20416;-72
2024/02/07 10:36:07;;;;;;;4.70;3.80;;;9.40;99.90;;;;;;4995456;28;20405;-73
2024/02/07 10:38:34;;;;;;;5.37;3.60;;;9.40;99.90;;;;;;4977343;28;20437;-72
2024/02/07 10:41:00;;;;;;;4.90;4.40;;;9.40;99.90;;;;;;4994594;28;20420;-72
2024/02/07 10:43:33;;;;;;;4.47;3.90;;;9.40;99.90;;;;;;4994344;28;20431;-72
2024/02/07 10:46:13;;;;;;;6.30;4.57;;;9.40;99.90;;;;;;4994887;28;20895;-72
2024/02/07 10:48:40;;;;;;;4.17;3.87;;;9.40;99.90;;;;;;4994209;28;20466;-72
2024/02/07 10:51:05;;;;;;;5.93;4.23;;;9.40;99.90;;;;;;4995049;28;20416;-72
2024/02/07 10:53:34;;;;;;;4.37;3.97;;;9.40;99.90;;;;;;4993172;28;20434;-72
2024/02/07 10:56:02;;;;;;;4.50;4.10;;;9.30;99.90;;;;;;4994285;28;20434;-72
2024/02/07 10:58:29;;;;;;;4.47;4.03;;;9.30;99.90;;;;;;4994374;28;20779;-72
2024/02/07 11:00:57;;;;;;;4.47;4.00;;;9.30;99.90;;;;;;4994927;28;20416;-72
2024/02/07 11:03:29;;;;;;;5.00;4.53;;;9.30;99.90;;;;;;4977095;28;20423;-63
2024/02/07 11:05:57;;;;;;;6.00;5.50;;;9.20;99.90;;;;;;4994765;28;20412;-72
2024/02/07 11:08:24;;;;;;;6.40;5.90;;;9.30;99.90;;;;;;4976622;28;20461;-64
2024/02/07 11:10:53;;;;;;;6.07;5.47;;;9.30;99.90;;;;;;4994284;28;20921;-73
2024/02/07 11:13:19;;;;;;;5.37;4.60;;;9.30;99.90;;;;;;4994672;28;20446;-72
2024/02/07 11:15:45;;;;;;;6.13;5.47;;;9.30;99.90;;;;;;4976281;28;20419;-73
2024/02/07 11:18:11;;;;;;;5.83;4.43;;;9.40;99.90;;;;;;4994672;28;20475;-72
2024/02/07 11:20:38;;;;;;;6.23;5.67;;;9.40;99.90;;;;;;4976260;28;20432;-72
2024/02/07 11:23:09;;;;;;;4.70;4.30;;;9.40;99.90;;;;;;4994508;28;20505;-69
2024/02/07 11:25:36;;;;;;;6.70;6.17;;;9.40;99.90;;;;;;4992827;28;20429;-72
2024/02/07 11:28:03;;;;;;;6.27;5.77;;;9.40;99.90;;;;;;4993723;28;20546;-72
2024/02/07 11:30:29;;;;;;;7.23;6.23;;;9.40;99.90;;;;;;4993452;28;20418;-71
2024/02/07 11:32:56;;;;;;;6.30;5.10;;;9.50;99.90;;;;;;4994571;28;20412;-72
2024/02/07 11:35:22;;;;;;;6.00;4.63;;;9.50;99.90;;;;;;4994607;28;20425;-72
2024/02/07 11:37:51;;;;;;;7.53;5.80;;;9.50;99.90;;;;;;4993349;28;20521;-72
2024/02/07 11:40:18;;;;;;;9.03;5.03;;;9.50;99.90;;;;;;4991324;28;20503;-72
2024/02/07 11:42:44;;;;;;;7.43;5.80;;;9.20;99.90;;;;;;4989592;28;20429;-72
2024/02/07 11:45:14;;;;;;;10.70;6.60;;;9.20;99.90;;;;;;4994045;28;20737;-72
2024/02/07 11:47:42;;;;;;;9.00;6.67;;;9.30;99.90;;;;;;4993176;28;20460;-73
2024/02/07 11:50:15;;;;;;;7.80;6.13;;;9.40;99.90;;;;;;4993641;28;20780;-73
2024/02/07 11:52:43;;;;;;;8.10;5.83;;;9.40;99.90;;;;;;4992917;28;20407;-72
2024/02/07 11:55:11;;;;;;;8.10;7.30;;;9.50;99.90;;;;;;4976236;28;20419;-73
2024/02/07 11:57:42;;;;;;;5.80;5.30;;;9.50;99.90;;;;;;4992279;28;20754;-67
2024/02/07 12:00:12;;;;;;;8.50;7.53;;;9.50;99.90;;;;;;4993272;28;20399;-71
2024/02/07 12:02:44;;;;;;;7.90;6.60;;;9.60;99.90;;;;;;4992882;28;20403;-70
2024/02/07 12:05:13;;;;;;;7.70;6.90;;;9.60;99.90;;;;;;4993802;28;20523;-72
2024/02/07 12:07:40;;;;;;;5.87;5.43;;;9.60;99.90;;;;;;4992693;28;20414;-72
2024/02/07 12:10:10;;;;;;;9.27;6.00;;;9.70;99.90;;;;;;4993304;28;20870;-71
2024/02/07 12:12:36;;;;;;;6.90;5.97;;;9.70;99.90;;;;;;4992822;28;20539;-71
2024/02/07 12:15:03;;;;;;;8.43;6.23;;;9.80;99.90;;;;;;4975246;28;20429;-71
2024/02/07 12:17:31;;;;;;;7.70;6.90;;;9.80;99.90;;;;;;4992305;28;20861;-64
2024/02/07 12:20:00;;;;;;;10.80;7.20;;;9.80;99.90;;;;;;4993590;28;20623;-72
2024/02/07 12:22:27;;;;;;;7.77;6.97;;;9.80;99.90;;;;;;4993441;28;20430;-63
2024/02/07 12:24:54;;;;;;;6.90;6.27;;;9.80;99.90;;;;;;4993343;28;20411;-72
2024/02/07 12:27:19;;;;;;;9.80;5.07;;;9.80;99.90;;;;;;4993262;28;20794;-72
2024/02/07 12:29:56;;;;;;;10.17;4.93;;;9.80;99.90;;;;;;4975165;28;20495;-72
2024/02/07 12:32:22;;;;;;;6.00;4.70;;;9.80;99.90;;;;;;4955718;28;20186;-72
2024/02/07 12:34:48;;;;;;;8.63;4.87;;;9.80;99.90;;;;;;4972784;28;20497;-72
2024/02/07 12:37:16;;;;;;;5.93;5.40;;;9.90;99.90;;;;;;4972664;28;20499;-72
2024/02/07 12:39:43;;;;;;;5.70;5.10;;;9.90;99.90;;;;;;4978214;28;20839;-72
2024/02/07 12:42:19;;;;;;;7.03;4.40;;;9.80;99.90;;;;;;4992805;28;20474;-72
2024/02/07 12:44:48;;;;;;;8.50;4.90;;;9.80;99.90;;;;;;4992213;28;20428;-72
2024/02/07 12:47:14;;;;;;;8.63;5.60;;;9.80;99.90;;;;;;4993138;28;20758;-72
2024/02/07 12:49:41;;;;;;;9.10;5.70;;;9.90;99.90;;;;;;4991879;28;20453;-71
2024/02/07 12:52:08;;;;;;;7.00;5.20;;;9.90;99.90;;;;;;4992963;28;20410;-71
2024/02/07 12:54:35;;;;;;;9.20;5.33;;;9.90;99.90;;;;;;4991406;28;20426;-70
2024/02/07 12:57:00;;;;;;;7.90;4.97;;;9.90;99.90;;;;;;4993027;28;20442;-71
2024/02/07 12:59:32;;;;;;;5.40;4.27;;;9.90;99.90;;;;;;4992856;28;20455;-71
2024/02/07 13:01:58;;;;;;;6.77;6.17;;;9.90;99.90;;;;;;4991609;28;20188;-71
2024/02/07 13:04:24;;;;;;;5.87;5.20;;;10.00;99.90;;;;;;4992953;28;20450;-70
2024/02/07 13:06:50;;;;;;;8.23;5.13;;;10.00;99.90;;;;;;4992088;28;20398;-70
2024/02/07 13:09:16;;;;;;;16.47;8.13;;;10.00;99.90;;;;;;4975133;28;20539;-71
2024/02/07 13:11:41;;;;;;;10.20;6.20;;;10.10;99.90;;;;;;4975847;28;20476;-70
2024/02/07 13:14:09;;;;;;;9.97;6.00;;;10.10;99.90;;;;;;4996910;28;20296;-71
2024/02/07 13:16:35;;;;;;;7.40;6.70;;;10.10;99.90;;;;;;4995950;28;20171;-70
2024/02/07 13:19:00;;;;;;;12.27;7.60;;;10.10;99.90;;;;;;4995629;28;20504;-71
2024/02/07 13:21:28;;;;;;;5.70;5.20;;;10.10;99.90;;;;;;4997026;28;20185;-71
2024/02/07 13:23:53;;;;;;;88.57;52.37;;;10.00;99.90;;;;;;4995448;28;21015;-70
2024/02/07 13:26:21;;;;;;;205.47;119.57;;;10.00;99.90;;;;;;4978660;28;20436;-70
2024/02/07 13:28:53;;;;;;;33.23;21.53;;;10.00;99.90;;;;;;4995905;28;20219;-71
2024/02/07 13:31:19;;;;;;;13.00;6.33;;;10.00;99.90;;;;;;4978507;28;20422;-71
2024/02/07 13:33:45;;;;;;;7.20;5.40;;;10.00;99.90;;;;;;4977698;28;20430;-70
2024/02/07 13:36:11;;;;;;;17.07;6.80;;;10.00;99.90;;;;;;4996354;28;20798;-71
2024/02/07 13:38:36;;;;;;;9.73;5.53;;;10.00;99.90;;;;;;4994660;28;20185;-71
2024/02/07 13:41:02;;;;;;;8.57;6.13;;;10.00;99.90;;;;;;4996474;28;20622;-72
2024/02/07 13:43:28;;;;;;;8.50;7.40;;;10.00;99.90;;;;;;4996499;28;20192;-72
2024/02/07 13:45:54;;;;;;;7.27;4.70;;;10.00;99.90;;;;;;4995726;28;20526;-72
2024/02/07 13:48:19;;;;;;;6.37;5.10;;;10.00;99.90;;;;;;4994709;28;20778;-72
2024/02/07 13:50:45;;;;;;;6.10;4.87;;;10.00;99.90;;;;;;4994348;28;20217;-72
2024/02/07 13:53:11;;;;;;;4.77;4.10;;;10.00;99.90;;;;;;4986451;28;20181;-73
2024/02/07 13:55:37;;;;;;;8.10;5.47;;;10.00;99.90;;;;;;4993891;28;20193;-71